createdAt,value
2023-06-17T00:00:13.580Z,101828.00
2023-06-17T00:02:40.173Z,101821.53
2023-06-17T00:05:06.990Z,101825.84
2023-06-17T00:07:33.475Z,101824.25
2023-06-17T00:09:59.979Z,101824.00
2023-06-17T00:12:30.665Z,101820.75
2023-06-17T00:14:58.278Z,101823.72
2023-06-17T00:17:24.845Z,101821.03
2023-06-17T00:19:51.272Z,101824.78
2023-06-17T00:22:19.802Z,101822.38
2023-06-17T00:24:46.263Z,101824.78
2023-06-17T00:27:12.743Z,101824.25
2023-06-17T00:29:39.302Z,101821.28
2023-06-17T00:32:06.228Z,101813.69
2023-06-17T00:34:32.686Z,101811.81
2023-06-17T00:36:59.656Z,101802.63
2023-06-17T00:39:26.971Z,101807.47
2023-06-17T00:41:53.414Z,101807.97
2023-06-17T00:44:19.996Z,101802.59
2023-06-17T00:46:51.475Z,101804.69
2023-06-17T00:49:18.925Z,101798.78
2023-06-17T00:51:53.426Z,101796.88
2023-06-17T00:54:28.736Z,101802.03
2023-06-17T00:56:56.028Z,101793.44
2023-06-17T00:59:22.552Z,101792.34
2023-06-17T01:01:49.311Z,101799.56
2023-06-17T01:04:16.410Z,101793.63
2023-06-17T01:06:51.750Z,101791.72
2023-06-17T01:09:23.407Z,101796.00
2023-06-17T01:11:55.276Z,101793.56
2023-06-17T01:14:22.279Z,101789.50
2023-06-17T01:16:52.231Z,101787.59
2023-06-17T01:19:22.046Z,101783.53
2023-06-17T01:21:55.171Z,101786.22
2023-06-17T01:24:29.735Z,101787.00
2023-06-17T01:27:01.106Z,101788.59
2023-06-17T01:29:30.444Z,101794.72
2023-06-17T01:31:58.973Z,101795.78
2023-06-17T01:34:37.615Z,101795.72
2023-06-17T01:37:08.800Z,101793.00
2023-06-17T01:39:37.335Z,101791.91
2023-06-17T01:42:11.028Z,101791.88
2023-06-17T01:44:39.756Z,101799.38
2023-06-17T01:47:10.465Z,101802.56
2023-06-17T01:49:38.776Z,101792.88
2023-06-17T01:52:06.097Z,101800.94
2023-06-17T01:54:32.729Z,101798.75
2023-06-17T01:56:59.463Z,101791.19
2023-06-17T01:59:26.031Z,101793.03
2023-06-17T02:01:52.507Z,101786.59
2023-06-17T02:04:19.294Z,101791.19
2023-06-17T02:06:45.804Z,101789.28
2023-06-17T02:09:14.284Z,101790.03
2023-06-17T02:11:40.791Z,101791.34
2023-06-17T02:14:07.741Z,101786.78
2023-06-17T02:16:34.717Z,101788.66
2023-06-17T02:19:03.382Z,101795.09
2023-06-17T02:21:29.893Z,101787.84
2023-06-17T02:23:56.446Z,101783.78
2023-06-17T02:26:22.958Z,101782.69
2023-06-17T02:28:49.758Z,101784.81
2023-06-17T02:31:16.394Z,101779.16
2023-06-17T02:33:42.902Z,101768.31
2023-06-17T02:36:09.380Z,101773.78
2023-06-17T02:38:37.110Z,101775.31
2023-06-17T02:41:03.643Z,101770.16
2023-06-17T02:43:30.410Z,101765.56
2023-06-17T02:45:56.903Z,101771.69
2023-06-17T02:48:23.367Z,101777.00
2023-06-17T02:50:50.030Z,101769.44
2023-06-17T02:53:17.337Z,101764.41
2023-06-17T02:55:46.679Z,101767.38
2023-06-17T02:58:16.763Z,101769.50
2023-06-17T03:00:46.539Z,101774.28
2023-06-17T03:03:14.136Z,101765.34
2023-06-17T03:05:42.567Z,101759.19
2023-06-17T03:08:09.562Z,101764.84
2023-06-17T03:10:36.067Z,101765.63
2023-06-17T03:13:02.786Z,101766.06
2023-06-17T03:15:29.222Z,101766.78
2023-06-17T03:17:56.249Z,101769.59
2023-06-17T03:20:29.382Z,101766.03
2023-06-17T03:22:56.864Z,101768.72
2023-06-17T03:25:24.336Z,101768.50
2023-06-17T03:27:51.857Z,101770.84
2023-06-17T03:30:18.575Z,101759.25
2023-06-17T03:32:45.995Z,101759.44
2023-06-17T03:35:12.793Z,101762.13
2023-06-17T03:37:39.284Z,101764.78
2023-06-17T03:40:06.993Z,101762.75
2023-06-17T03:42:33.546Z,101761.19
2023-06-17T03:45:00.059Z,101754.50
2023-06-17T03:47:26.834Z,101768.16
2023-06-17T03:49:54.085Z,101766.03
2023-06-17T03:52:20.720Z,101764.75
2023-06-17T03:54:47.397Z,101764.19
2023-06-17T03:57:14.082Z,101764.13
2023-06-17T03:59:40.628Z,101756.81
2023-06-17T04:02:07.272Z,101755.44
2023-06-17T04:04:36.078Z,101765.94
2023-06-17T04:07:03.800Z,101761.69
2023-06-17T04:09:30.361Z,101769.25
2023-06-17T04:11:58.417Z,101758.81
2023-06-17T04:14:24.849Z,101747.81
2023-06-17T04:16:51.339Z,101755.94
2023-06-17T04:19:18.646Z,101763.53
2023-06-17T04:21:46.620Z,101760.56
2023-06-17T04:24:13.172Z,101756.34
2023-06-17T04:26:39.734Z,101754.50
2023-06-17T04:29:06.565Z,101758.59
2023-06-17T04:31:36.600Z,101766.69
2023-06-17T04:34:03.744Z,101768.09
2023-06-17T04:36:30.563Z,101768.16
2023-06-17T04:38:57.078Z,101774.63
2023-06-17T04:41:25.158Z,101773.34
2023-06-17T04:43:52.519Z,101769.16
2023-06-17T04:46:19.442Z,101768.44
2023-06-17T04:48:46.585Z,101775.22
2023-06-17T04:51:14.032Z,101770.19
2023-06-17T04:53:40.718Z,101765.69
2023-06-17T04:56:10.000Z,101761.44
2023-06-17T04:58:36.517Z,101754.25
2023-06-17T05:01:03.230Z,101760.75
2023-06-17T05:03:30.874Z,101760.00
2023-06-17T05:05:57.630Z,101758.16
2023-06-17T05:08:24.192Z,101762.78
2023-06-17T05:10:51.058Z,101760.50
2023-06-17T05:13:17.530Z,101757.13
2023-06-17T05:15:44.149Z,101765.16
2023-06-17T05:18:10.961Z,101755.91
2023-06-17T05:20:37.651Z,101758.97
2023-06-17T05:23:04.430Z,101762.41
2023-06-17T05:25:31.070Z,101767.00
2023-06-17T05:27:57.573Z,101760.53
2023-06-17T05:30:24.202Z,101759.47
2023-06-17T05:32:50.936Z,101762.41
2023-06-17T05:35:17.747Z,101758.34
2023-06-17T05:37:44.486Z,101757.63
2023-06-17T05:40:11.422Z,101761.63
2023-06-17T05:42:37.966Z,101754.16
2023-06-17T05:45:04.870Z,101756.38
2023-06-17T05:47:31.516Z,101753.13
2023-06-17T05:49:58.135Z,101752.88
2023-06-17T05:52:25.414Z,101747.53
2023-06-17T05:54:52.280Z,101756.78
2023-06-17T05:57:18.827Z,101762.28
2023-06-17T05:59:46.205Z,101756.25
2023-06-17T06:02:12.919Z,101753.25
2023-06-17T06:04:39.394Z,101749.69
2023-06-17T06:07:05.990Z,101756.53
2023-06-17T06:09:32.632Z,101752.56
2023-06-17T06:11:59.378Z,101747.66
2023-06-17T06:14:26.090Z,101751.59
2023-06-17T06:16:52.613Z,101757.06
2023-06-17T06:19:19.290Z,101751.53
2023-06-17T06:21:45.872Z,101751.72
2023-06-17T06:24:12.552Z,101752.34
2023-06-17T06:26:39.332Z,101755.22
2023-06-17T06:29:06.288Z,101748.19
2023-06-17T06:31:33.252Z,101747.47
2023-06-17T06:34:00.023Z,101748.78
2023-06-17T06:36:26.557Z,101748.56
2023-06-17T06:38:52.990Z,101754.84
2023-06-17T06:41:19.694Z,101753.94
2023-06-17T06:43:47.030Z,101747.81
2023-06-17T06:46:16.086Z,101744.16
2023-06-17T06:48:43.193Z,101746.19
2023-06-17T06:51:10.044Z,101752.28
2023-06-17T06:53:36.572Z,101749.88
2023-06-17T06:56:03.097Z,101751.47
2023-06-17T06:58:29.605Z,101748.75
2023-06-17T07:00:56.371Z,101745.22
2023-06-17T07:03:22.828Z,101751.28
2023-06-17T07:05:49.401Z,101755.94
2023-06-17T07:08:16.040Z,101751.53
2023-06-17T07:10:42.658Z,101752.06
2023-06-17T07:13:09.370Z,101747.06
2023-06-17T07:15:35.963Z,101754.31
2023-06-17T07:18:02.594Z,101755.91
2023-06-17T07:20:29.173Z,101755.41
2023-06-17T07:22:55.800Z,101753.06
2023-06-17T07:25:22.431Z,101752.47
2023-06-17T07:27:49.030Z,101750.88
2023-06-17T07:30:15.782Z,101756.47
2023-06-17T07:32:42.652Z,101752.44
2023-06-17T07:35:09.417Z,101750.84
2023-06-17T07:37:35.886Z,101750.75
2023-06-17T07:40:02.463Z,101747.66
2023-06-17T07:42:29.139Z,101752.25
2023-06-17T07:44:56.023Z,101745.16
2023-06-17T07:47:23.151Z,101738.34
2023-06-17T07:49:49.979Z,101739.00
2023-06-17T07:52:16.586Z,101740.72
2023-06-17T07:54:43.121Z,101735.25
2023-06-17T07:57:09.759Z,101740.63
2023-06-17T07:59:36.430Z,101736.47
2023-06-17T08:02:03.199Z,101734.09
2023-06-17T08:04:29.673Z,101728.03
2023-06-17T08:06:56.806Z,101734.88
2023-06-17T08:09:23.388Z,101744.50
2023-06-17T08:11:52.969Z,101730.56
2023-06-17T08:14:19.513Z,101744.94
2023-06-17T08:16:46.857Z,101736.47
2023-06-17T08:19:13.637Z,101740.69
2023-06-17T08:21:43.346Z,101740.63
2023-06-17T08:24:19.761Z,101740.13
2023-06-17T08:26:47.040Z,101739.28
2023-06-17T08:29:14.563Z,101735.25
2023-06-17T08:31:45.817Z,101733.25
2023-06-17T08:34:13.818Z,101732.28
2023-06-17T08:36:43.760Z,101729.47
2023-06-17T08:39:10.879Z,101730.44
2023-06-17T08:41:42.237Z,101731.38
2023-06-17T08:44:13.166Z,101736.53
2023-06-17T08:46:41.046Z,101736.63
2023-06-17T08:49:13.397Z,101724.50
2023-06-17T08:51:41.574Z,101728.66
2023-06-17T08:54:08.336Z,101729.72
2023-06-17T08:56:35.585Z,101726.41
2023-06-17T08:59:02.232Z,101723.72
2023-06-17T09:01:28.991Z,101726.47
2023-06-17T09:03:55.832Z,101728.56
2023-06-17T09:06:24.501Z,101731.91
2023-06-17T09:08:52.587Z,101730.03
2023-06-17T09:11:23.826Z,101723.47
2023-06-17T09:13:54.482Z,101725.06
2023-06-17T09:16:31.709Z,101724.53
2023-06-17T09:19:02.488Z,101732.53
2023-06-17T09:21:29.282Z,101732.78
2023-06-17T09:23:57.617Z,101729.81
2023-06-17T09:26:30.658Z,101738.25
2023-06-17T09:29:06.214Z,101737.63
2023-06-17T09:31:34.569Z,101735.34
2023-06-17T09:34:04.763Z,101734.66
2023-06-17T09:36:31.470Z,101736.81
2023-06-17T09:38:58.302Z,101729.69
2023-06-17T09:41:25.426Z,101723.34
2023-06-17T09:43:55.878Z,101728.28
2023-06-17T09:46:37.540Z,101724.34
2023-06-17T09:49:08.452Z,101737.66
2023-06-17T09:51:39.819Z,101736.47
2023-06-17T09:54:08.207Z,101728.25
2023-06-17T09:56:37.194Z,101726.13
2023-06-17T09:59:04.598Z,101723.63
2023-06-17T10:01:31.950Z,101719.22
2023-06-17T10:03:59.655Z,101715.16
2023-06-17T10:06:35.433Z,101715.25
2023-06-17T10:09:07.221Z,101716.59
2023-06-17T10:11:36.800Z,101712.69
2023-06-17T10:14:18.779Z,101708.16
2023-06-17T10:16:49.443Z,101714.00
2023-06-17T10:19:20.812Z,101702.78
2023-06-17T10:21:50.080Z,101703.75
2023-06-17T10:24:19.156Z,101701.81
2023-06-17T10:26:45.794Z,101697.16
2023-06-17T10:29:13.610Z,101696.81
2023-06-17T10:31:44.307Z,101697.16
2023-06-17T10:34:21.346Z,101694.38
2023-06-17T10:36:54.588Z,101686.75
2023-06-17T10:39:21.081Z,101691.91
2023-06-17T10:41:52.073Z,101684.13
2023-06-17T10:44:33.886Z,101682.13
2023-06-17T10:47:01.119Z,101675.88
2023-06-17T10:49:39.548Z,101677.13
2023-06-17T10:52:06.520Z,101674.34
2023-06-17T10:54:34.527Z,101674.72
2023-06-17T10:57:02.590Z,101679.47
2023-06-17T10:59:31.450Z,101671.13
2023-06-17T11:02:02.466Z,101661.66
2023-06-17T11:04:31.861Z,101662.84
2023-06-17T11:06:59.392Z,101660.06
2023-06-17T11:09:27.101Z,101656.00
2023-06-17T11:11:58.355Z,101653.91
2023-06-17T11:14:28.225Z,101658.66
2023-06-17T11:16:55.243Z,101663.03
2023-06-17T11:19:21.884Z,101649.50
2023-06-17T11:22:04.803Z,101655.56
2023-06-17T11:24:32.727Z,101643.63
2023-06-17T11:26:59.803Z,101646.38
2023-06-17T11:29:27.416Z,101636.84
2023-06-17T11:32:01.143Z,101633.28
2023-06-17T11:34:33.223Z,101636.06
2023-06-17T11:37:01.748Z,101629.25
2023-06-17T11:39:30.945Z,101636.31
2023-06-17T11:42:03.398Z,101636.00
2023-06-17T11:44:31.759Z,101631.66
2023-06-17T11:47:04.464Z,101627.25
2023-06-17T11:49:31.285Z,101628.16
2023-06-17T11:52:03.386Z,101626.69
2023-06-17T11:54:30.518Z,101619.28
2023-06-17T11:56:57.809Z,101612.59
2023-06-17T11:59:24.984Z,101612.66
2023-06-17T12:01:53.063Z,101607.91
2023-06-17T12:04:20.029Z,101601.16
2023-06-17T12:06:49.436Z,101601.44
2023-06-17T12:09:17.163Z,101602.56
2023-06-17T12:11:44.719Z,101600.53
2023-06-17T12:14:13.478Z,101606.47
2023-06-17T12:16:44.695Z,101603.50
2023-06-17T12:19:21.566Z,101609.16
2023-06-17T12:21:48.588Z,101606.16
2023-06-17T12:24:16.933Z,101606.22
2023-06-17T12:26:44.284Z,101597.75
2023-06-17T12:29:20.245Z,101595.13
2023-06-17T12:31:52.556Z,101598.09
2023-06-17T12:34:19.295Z,101594.41
2023-06-17T12:36:45.946Z,101580.53
2023-06-17T12:39:12.501Z,101588.94
2023-06-17T12:41:40.111Z,101575.66
2023-06-17T12:44:06.882Z,101583.00
2023-06-17T12:46:36.598Z,101571.38
2023-06-17T12:49:03.997Z,101571.53
2023-06-17T12:51:30.708Z,101569.91
2023-06-17T12:53:57.279Z,101557.06
2023-06-17T12:56:23.980Z,101560.91
2023-06-17T12:58:50.898Z,101560.75
2023-06-17T13:01:18.037Z,101552.75
2023-06-17T13:03:45.170Z,101552.13
2023-06-17T13:06:11.721Z,101556.56
2023-06-17T13:08:38.775Z,101553.00
2023-06-17T13:11:05.412Z,101548.16
2023-06-17T13:13:32.724Z,101551.66
2023-06-17T13:15:59.608Z,101541.78
2023-06-17T13:18:26.615Z,101547.59
2023-06-17T13:20:53.577Z,101545.03
2023-06-17T13:23:20.553Z,101546.94
2023-06-17T13:25:47.238Z,101536.88
2023-06-17T13:28:14.311Z,101550.66
2023-06-17T13:30:41.101Z,101535.28
2023-06-17T13:33:07.955Z,101542.63
2023-06-17T13:35:34.706Z,101533.63
2023-06-17T13:38:04.033Z,101543.16
2023-06-17T13:40:32.162Z,101539.38
2023-06-17T13:42:58.782Z,101534.91
2023-06-17T13:45:25.556Z,101530.47
2023-06-17T13:47:52.253Z,101526.00
2023-06-17T13:50:19.002Z,101534.16
2023-06-17T13:52:46.054Z,101536.94
2023-06-17T13:55:13.736Z,101537.09
2023-06-17T13:57:40.519Z,101541.00
2023-06-17T14:00:08.852Z,101534.94
2023-06-17T14:02:35.667Z,101532.50
2023-06-17T14:05:04.469Z,101532.50
2023-06-17T14:07:31.207Z,101525.69
2023-06-17T14:09:57.789Z,101523.75
2023-06-17T14:12:24.493Z,101533.78
2023-06-17T14:14:50.998Z,101520.41
2023-06-17T14:17:17.641Z,101520.56
2023-06-17T14:19:44.110Z,101519.03
2023-06-17T14:22:10.723Z,101528.16
2023-06-17T14:24:39.266Z,101520.69
2023-06-17T14:27:23.026Z,101519.50
2023-06-17T14:29:49.749Z,101519.41
2023-06-17T14:32:17.716Z,101512.81
2023-06-17T14:34:44.271Z,101512.19
2023-06-17T14:37:10.769Z,101522.63
2023-06-17T14:39:37.509Z,101520.78
2023-06-17T14:42:04.366Z,101515.56
2023-06-17T14:44:30.852Z,101515.31
2023-06-17T14:46:57.410Z,101512.69
2023-06-17T14:49:24.034Z,101515.03
2023-06-17T14:51:52.647Z,101511.63
2023-06-17T14:54:20.817Z,101510.13
2023-06-17T14:56:47.325Z,101514.22
2023-06-17T14:59:14.010Z,101503.91
2023-06-17T15:01:40.683Z,101508.72
2023-06-17T15:04:09.511Z,101499.75
2023-06-17T15:06:36.430Z,101497.09
2023-06-17T15:09:27.404Z,101497.56
2023-06-17T15:11:55.590Z,101503.69
2023-06-17T15:14:22.571Z,101504.50
2023-06-17T15:16:51.062Z,101503.34
2023-06-17T15:19:18.131Z,101504.56
2023-06-17T15:21:45.736Z,101497.09
2023-06-17T15:24:13.105Z,101503.41
2023-06-17T15:26:39.778Z,101506.00
2023-06-17T15:29:07.541Z,101497.69
2023-06-17T15:31:34.848Z,101498.59
2023-06-17T15:34:01.747Z,101493.03
2023-06-17T15:36:29.569Z,101493.84
2023-06-17T15:39:00.874Z,101492.75
2023-06-17T15:41:27.520Z,101488.75
2023-06-17T15:43:55.445Z,101497.69
2023-06-17T15:46:22.278Z,101492.72
2023-06-17T15:48:49.260Z,101489.41
2023-06-17T15:51:16.333Z,101490.44
2023-06-17T15:53:42.832Z,101493.44
2023-06-17T15:56:09.358Z,101492.28
2023-06-17T15:58:36.003Z,101493.47
2023-06-17T16:01:02.544Z,101493.41
2023-06-17T16:03:30.788Z,101496.63
2023-06-17T16:05:58.644Z,101495.22
2023-06-17T16:08:28.145Z,101486.38
2023-06-17T16:10:54.666Z,101485.25
2023-06-17T16:13:21.258Z,101486.38
2023-06-17T16:15:47.781Z,101485.34
2023-06-17T16:18:14.361Z,101481.56
2023-06-17T16:20:41.489Z,101485.69
2023-06-17T16:23:08.396Z,101480.19
2023-06-17T16:25:49.873Z,101477.75
2023-06-17T16:28:21.100Z,101471.84
2023-06-17T16:30:47.647Z,101475.41
2023-06-17T16:33:15.197Z,101472.72
2023-06-17T16:35:41.988Z,101472.66
2023-06-17T16:38:08.891Z,101478.47
2023-06-17T16:40:35.569Z,101473.66
2023-06-17T16:43:02.241Z,101460.44
2023-06-17T16:45:29.065Z,101458.91
2023-06-17T16:47:56.697Z,101464.31
2023-06-17T16:50:23.891Z,101466.00
2023-06-17T16:52:50.760Z,101465.16
2023-06-17T16:55:17.500Z,101469.22
2023-06-17T16:57:44.495Z,101473.03
2023-06-17T17:00:12.497Z,101461.16
2023-06-17T17:02:39.482Z,101458.72
2023-06-17T17:05:06.763Z,101458.84
2023-06-17T17:07:33.437Z,101461.34
2023-06-17T17:09:59.922Z,101465.09
2023-06-17T17:12:26.543Z,101456.16
2023-06-17T17:14:53.184Z,101456.28
2023-06-17T17:17:19.640Z,101467.09
2023-06-17T17:19:46.324Z,101460.47
2023-06-17T17:22:12.933Z,101472.75
2023-06-17T17:24:39.626Z,101470.41
2023-06-17T17:27:08.020Z,101467.63
2023-06-17T17:29:35.346Z,101469.28
2023-06-17T17:32:03.148Z,101476.44
2023-06-17T17:34:29.866Z,101470.91
2023-06-17T17:36:56.482Z,101466.22
2023-06-17T17:39:23.264Z,101473.28
2023-06-17T17:41:49.876Z,101474.09
2023-06-17T17:44:16.287Z,101472.47
2023-06-17T17:46:42.842Z,101475.28
2023-06-17T17:49:09.761Z,101468.53
2023-06-17T17:51:36.504Z,101478.00
2023-06-17T17:54:03.411Z,101480.78
2023-06-17T17:56:30.323Z,101479.16
2023-06-17T17:58:56.981Z,101473.63
2023-06-17T18:01:23.602Z,101481.09
2023-06-17T18:03:50.823Z,101481.44
2023-06-17T18:06:17.391Z,101472.31
2023-06-17T18:08:44.130Z,101477.25
2023-06-17T18:11:10.815Z,101474.38
2023-06-17T18:13:37.467Z,101481.59
2023-06-17T18:16:04.373Z,101472.91
2023-06-17T18:18:31.064Z,101487.41
2023-06-17T18:20:57.505Z,101484.13
2023-06-17T18:23:24.153Z,101481.22
2023-06-17T18:25:50.793Z,101478.34
2023-06-17T18:28:17.431Z,101486.09
2023-06-17T18:30:43.868Z,101482.84
2023-06-17T18:33:10.538Z,101483.88
2023-06-17T18:35:37.168Z,101481.56
2023-06-17T18:38:03.654Z,101482.19
2023-06-17T18:40:30.305Z,101483.31
2023-06-17T18:42:56.963Z,101483.22
2023-06-17T18:45:23.612Z,101488.63
2023-06-17T18:47:50.161Z,101483.69
2023-06-17T18:50:16.645Z,101488.59
2023-06-17T18:52:45.243Z,101491.22
2023-06-17T18:55:12.035Z,101487.50
2023-06-17T18:57:38.808Z,101496.72
2023-06-17T19:00:06.121Z,101489.03
2023-06-17T19:02:33.046Z,101495.59
2023-06-17T19:05:06.124Z,101497.72
2023-06-17T19:07:32.801Z,101496.75
2023-06-17T19:10:00.369Z,101497.41
2023-06-17T19:12:31.811Z,101484.63
2023-06-17T19:14:58.727Z,101489.91
2023-06-17T19:17:25.840Z,101491.66
2023-06-17T19:19:52.611Z,101494.72
2023-06-17T19:22:19.215Z,101493.31
2023-06-17T19:24:45.667Z,101497.41
2023-06-17T19:27:12.205Z,101489.53
2023-06-17T19:29:38.687Z,101497.00
2023-06-17T19:32:05.585Z,101493.94
2023-06-17T19:34:32.121Z,101496.06
2023-06-17T19:36:58.708Z,101494.38
2023-06-17T19:39:25.351Z,101501.72
2023-06-17T19:41:51.752Z,101507.28
2023-06-17T19:44:18.358Z,101496.16
2023-06-17T19:46:45.330Z,101499.53
2023-06-17T19:49:11.982Z,101495.44
2023-06-17T19:51:38.659Z,101495.97
2023-06-17T19:54:05.202Z,101493.75
2023-06-17T19:56:32.162Z,101490.03
2023-06-17T19:58:58.841Z,101491.88
2023-06-17T20:01:27.571Z,101486.13
2023-06-17T20:03:54.342Z,101500.19
2023-06-17T20:06:21.003Z,101494.88
2023-06-17T20:08:48.260Z,101497.78
2023-06-17T20:11:14.794Z,101504.63
2023-06-17T20:13:41.423Z,101505.69
2023-06-17T20:16:07.971Z,101504.22
2023-06-17T20:18:34.817Z,101508.00
2023-06-17T20:21:01.411Z,101504.63
2023-06-17T20:23:30.082Z,101510.78
2023-06-17T20:25:56.984Z,101510.22
2023-06-17T20:28:23.415Z,101508.72
2023-06-17T20:30:49.983Z,101503.13
2023-06-17T20:33:16.595Z,101500.50
2023-06-17T20:35:43.431Z,101501.91
2023-06-17T20:38:10.014Z,101499.16
2023-06-17T20:40:36.633Z,101506.56
2023-06-17T20:43:03.087Z,101504.50
2023-06-17T20:45:29.695Z,101504.28
2023-06-17T20:47:56.278Z,101510.84
2023-06-17T20:50:23.323Z,101502.53
2023-06-17T20:52:49.987Z,101497.28
2023-06-17T20:55:16.667Z,101505.03
2023-06-17T20:57:43.399Z,101498.75
2023-06-17T21:00:10.525Z,101506.81
2023-06-17T21:02:37.595Z,101499.53
2023-06-17T21:05:04.786Z,101502.47
2023-06-17T21:07:31.496Z,101503.59
2023-06-17T21:09:58.412Z,101494.97
2023-06-17T21:12:25.003Z,101496.41
2023-06-17T21:14:51.604Z,101505.97
2023-06-17T21:17:18.452Z,101502.66
2023-06-17T21:19:45.018Z,101504.94
2023-06-17T21:22:11.503Z,101505.13
2023-06-17T21:24:38.006Z,101491.22
2023-06-17T21:27:10.256Z,101498.38
2023-06-17T21:29:39.168Z,101494.09
2023-06-17T21:32:07.320Z,101493.22
2023-06-17T21:34:34.230Z,101493.59
2023-06-17T21:37:01.413Z,101495.75
2023-06-17T21:39:27.984Z,101497.56
2023-06-17T21:41:54.475Z,101498.00
2023-06-17T21:44:21.235Z,101485.16
2023-06-17T21:46:47.689Z,101492.53
2023-06-17T21:49:14.265Z,101491.63
2023-06-17T21:51:40.968Z,101488.28
2023-06-17T21:54:07.514Z,101492.16
2023-06-17T21:56:34.181Z,101487.69
2023-06-17T21:59:00.929Z,101491.72
2023-06-17T22:01:27.557Z,101495.31
2023-06-17T22:03:54.244Z,101497.28
2023-06-17T22:06:21.110Z,101498.56
2023-06-17T22:08:47.561Z,101494.72
2023-06-17T22:11:14.303Z,101499.38
2023-06-17T22:13:41.123Z,101500.00
2023-06-17T22:16:07.994Z,101498.75
2023-06-17T22:18:34.613Z,101496.97
2023-06-17T22:21:01.485Z,101497.75
2023-06-17T22:23:27.982Z,101489.91
2023-06-17T22:25:54.911Z,101491.81
2023-06-17T22:28:21.380Z,101495.03
2023-06-17T22:30:47.974Z,101493.91
2023-06-17T22:33:16.073Z,101498.09
2023-06-17T22:35:42.850Z,101487.69
2023-06-17T22:38:09.687Z,101493.63
2023-06-17T22:40:36.612Z,101496.53
2023-06-17T22:43:04.064Z,101490.59
2023-06-17T22:45:30.700Z,101500.09
2023-06-17T22:47:57.424Z,101489.97
2023-06-17T22:50:24.547Z,101492.84
2023-06-17T22:52:51.277Z,101492.69
2023-06-17T22:55:18.069Z,101497.53
2023-06-17T22:57:44.759Z,101493.22
2023-06-17T23:00:12.684Z,101494.03
2023-06-17T23:02:39.355Z,101491.28
2023-06-17T23:05:06.109Z,101479.09
2023-06-17T23:07:32.784Z,101480.91
2023-06-17T23:09:59.385Z,101474.16
2023-06-17T23:12:25.954Z,101481.06
2023-06-17T23:14:52.537Z,101477.72
2023-06-17T23:17:19.083Z,101473.25
2023-06-17T23:19:45.781Z,101466.72
2023-06-17T23:22:12.672Z,101480.97
2023-06-17T23:24:39.201Z,101476.81
2023-06-17T23:27:06.295Z,101478.25
2023-06-17T23:29:33.811Z,101478.59
2023-06-17T23:32:00.489Z,101475.41
2023-06-17T23:34:27.131Z,101477.78
2023-06-17T23:36:54.048Z,101479.25
2023-06-17T23:39:20.688Z,101477.78
2023-06-17T23:41:47.151Z,101475.72
2023-06-17T23:44:13.645Z,101476.03
2023-06-17T23:46:40.308Z,101470.44
2023-06-17T23:49:06.908Z,101469.00
2023-06-17T23:51:33.621Z,101474.47
2023-06-17T23:54:01.381Z,101468.06
2023-06-17T23:56:28.203Z,101468.06
2023-06-17T23:58:54.697Z,101461.66
